Lawson Army Air Field (Fort Benning)
KLSF : now visible

Airfield :











YOU CAN JOIN US ON...

 
LOGIN :

Register | Disclaimer

   EN    FR    IT 

 









Legend :    VFR   Marginal VFR   IFR   Intensive IFR   Very Intensive IFR
Visi :
Ceiling :
>= 8 km
>= 3000ft
5 to 8 km
1000 to 3000 ft
1500m to 5 km
500 to 1000 ft
800 to 1500m
200 to 500 ft
< 800m
< 200 ft
Symbols :   Thunderstorms  Fog  Heavy snow  Heavy precipitations  Wind > 20 kt







- Airport Elevation : 232 ft


KLSF - Lawson Army Air Field (Fort Benning)

CURRENT METAR :
  • 210556Z AUTO 00000KT 5SM BR CLR 21/21 A3003 RMK AO2 SLP172 T02110211 10262 20211 57013

EXPIRED METARs :
  • 210546Z AUTO 00000KT 2 3/4SM BR CLR 21/21 A3003 RMK AO2 VIS 2 3/4V6 SLP172
  • 210536Z AUTO 00000KT 5SM BR CLR 21/21 A3003 RMK AO2 SLP172
  • 210521Z AUTO 00000KT 2 1/2SM BR CLR 21/21 A3004 RMK AO2 VIS 2 1/2V10 SLP175
  • 210456Z AUTO 00000KT 10SM CLR 21/21 A3005 RMK AO2 VIS 2 1/4 RWY15 SLP179 T02140214 403310214
  • 210356Z AUTO 00000KT 10SM CLR 22/22 A3006 RMK AO2 SLP182 T02200220

TAF TAF KLSF
Valid from the 20 at 01:00 until the 21 at 07:00 UTC


200100Z 2001/2107 VRB06KT 9999 VCSH BKN040 QNH3003INS
BECMG 2010/2011 VRB06KT 4800 BR BKN010 QNH3005INS
BECMG 2014/2015 VRB06KT 9999 NSW SCT040 QNH3009INS
TEMPO 2017/2021 VRB20G35KT 1600 +TSRA BKN030CB
BECMG 2106/2107 VRB06KT 8000 BR SCT020 QNH3002INS TX30/2022Z TN24/2007Z LAST NO AMDS AFT 2003 NEXT 2209
KZTL FIR / North America



MET'MAP, your aeronautical weather chart ! - Copyright ORBIFLY December 2007 - Disclaimer

ORBIFLY MET'MAP TEAM :

Programming & Development : Alexandra Zaïnal
Concept & Development : Baudouin d'Aumeries
Co-Development & Prog : Marc-Olivier Méhu
Technical & hardware support : Manuel Goepfert

Contact : metmap@orbifly.com




SOURCES & CREDITS :

   NOAA       Earth
Advisory